Brisbin, PA (16620)

10:32 AM EDT on September 02, 2015 (GMT -0400)
The Garden | | Change Station
CLOSE
Current Station
Personal Weather Station
Location: Houtzdale, PA
Elevation: 1578 ft
Nearby Weather Stations

Elev 1578 ft 40.79 °N, 78.37 °W | Updated 7 seconds ago

Partly Cloudy
Partly Cloudy
77.7 °F
Feels Like 80 °F
N
2.0
Wind Variable Wind from SW
Gusts 2.5 mph

Today
High -- | Low -- °F
--% Chance of Precip.
Yesterday
High -- | Low -- °F
Precip. -- in
6:41 AM 7:44 PM
Waning Gibbous, 80% visible
Pressure 30.10 in
Visibility 6.0 miles
Clouds Clear
Heat Index 80 °F
Dew Point 66 °F
Humidity 67%
Rainfall 0.00 in
Snow Depth Not available.
UV 4.0 out of 12
Pollen 10.00 out of 12
Air Quality Not available.
Flu Activity Not available.
METAR KFIG 021354Z AUTO 21006KT 6SM HZ CLR 21/18 A3012 RMK AO2 SLP192 T02110183
Pressure 30.10 in
Visibility 6.0 miles
Clouds Clear
Heat Index 80 °F
Dew Point 66 °F
Humidity 67%
Rainfall 0.00 in
Snow Depth Not available.
UV 4.0 out of 12
Pollen 10.00 out of 12
Air Quality Not available.
Flu Activity Not available.
METAR KFIG 021354Z AUTO 21006KT 6SM HZ CLR 21/18 A3012 RMK AO2 SLP192 T02110183

10-Day Weather Forecast

×

Almanac

Astronomy

Sep. 02, 2015 Rise Set
Actual Time
Civil Twilight
Nautical Twilight
Astronomical Twilight
Moon
Length of Visible Light
Length of Day
Tomorrow will be .
, % of the Moon is Illuminated

Today's Extremes

State Highs State Lows

Community

WunderPhotos

Upload Photos

1,851,763 photos uploaded!

WunderBlogs® & News

Nearby

Air Quality

  Air Quality AQ Index Pollutant
Not available.

Snow Depth

Station Depth Elevation

Earthquake Activity

City Distance Mag. Time & Date
Minimum magnitude displayed is 2.5.

Coastal Water Temperatures

Place Temperature

Stations

Nearby Weather Stations

Station Location Temp. Windchill Dew Point Humidity Wind Precip. Elev Updated Type